Terminal Aerodrome Forecast
Issued by NWS

Home | Current Version | Previous Version | Text Only | Print | Product List | Glossary On
Versions: 1 2 3 4 5 6 7 8 9 10 11 12 13 14 15 16 17
000
FTUS45 KRIW 251705 AAC
TAFBPI
TAF AMD
KBPI 251705Z 2517/2612 VRB05KT P6SM SCT025 BKN035
      TEMPO 2517/2519 VRB05KT 2SM +TSRAGS OVC022CB
     FM251900 28011G20KT 6SM -SHRA VCTS SCT050CB BKN080
     FM260200 30008KT P6SM VCSH SCT050 BKN070
     FM260400 VRB06KT P6SM SCT070 SCT200=

USA.gov is the U.S. government's official web portal to all federal, state and local government web resources and services.